HS Bizet — A8MI3 — position and weather

sailwx.info

Track history (hours):
 
Tides and Currents Weather Stations Pressure Air Temp Water Temp Dewpoint Dewpoint Depression Visibility Wind Speed Wind Dir Waves Ship Positions

HS Bizet

Last reported at 2014-Oct-01 21:23 UTC. Time now 2014-Oct-02 12:42 UTC.
Position S 35°59' E 175°46'.

Length 246 m; draft 9.7 m.

Type: Ship (hazmat cat A). MMSI: 636091349.

Date/timePositionNaut miles runAvg speedWind from/ knotsBaromVisibWave heightAir tempDewpointWater temp
2014-Oct-01 21:23S 35°59' E 175°46'  
2014-Sep-26 06:28S 37°16' E 150°15'1717.9
2014-Sep-26 05:33S 37°32' E 150°08'2118.4
2014-Sep-26 04:25S 37°46' E 149°48'1618.2
2014-Sep-26 03:33S 37°57' E 149°34'6518.7
2014-Sep-26 00:04S 38°38' E 148°29'1819.6
2014-Sep-25 23:08S 38°48' E 148°10'3321.0
2014-Sep-25 21:33S 39°00' E 147°30'2121.4
2014-Sep-25 20:34S 39°08' E 147°05'2221.7
2014-Sep-25 19:33S 39°16' E 146°39'2121.1
2014-Sep-25 18:34S 39°17' E 146°11'2121.2
2014-Sep-25 17:34S 39°06' E 145°48'  
2014-Sep-23 13:22S 38°47' E 145°14'1615.2
2014-Sep-23 12:20S 38°55' E 145°31'1215.3
2014-Sep-23 11:33S 39°01' E 145°44'1515.1
2014-Sep-23 10:33S 39°09' E 146°01'1514.9
2014-Sep-23 09:33S 39°12' E 146°19'1616.2
2014-Sep-23 08:33S 39°07' E 146°39'4815.9
2014-Sep-23 05:33S 38°58' E 147°40'1615.5
2014-Sep-23 04:33S 38°55' E 147°59'1515.2
2014-Sep-23 03:33S 38°53' E 148°19'1615.6
2014-Sep-23 02:33S 38°51' E 148°39'1616.4
2014-Sep-23 01:33S 38°48' E 148°59'1817.7
2014-Sep-23 00:33S 38°45' E 149°22'18117.3
2014-Sep-22 14:08S 37°36' E 152°54'1117.6
2014-Sep-22 13:30S 37°31' E 153°07'1717.5
2014-Sep-22 12:32S 37°25' E 153°26'  
Track history (hours):
 
Tides and Currents Weather Stations Pressure Air Temp Water Temp Dewpoint Dewpoint Depression Visibility Wind Speed Wind Dir Waves Ship Positions

HS Bizet

Last reported at 2014-Oct-01 21:23 UTC. Time now 2014-Oct-02 12:42 UTC.
Position S 35°59' E 175°46'.

Length 246 m; draft 9.7 m.

Type: Ship (hazmat cat A). MMSI: 636091349.

Date/timePositionNaut miles runAvg speedWind from/ knotsBaromVisibWave heightAir tempDewpointWater temp
2014-Oct-01 21:23S 35°59' E 175°46'  
2014-Sep-26 06:28S 37°16' E 150°15'1717.9
2014-Sep-26 05:33S 37°32' E 150°08'2118.4
2014-Sep-26 04:25S 37°46' E 149°48'1618.2
2014-Sep-26 03:33S 37°57' E 149°34'6518.7
2014-Sep-26 00:04S 38°38' E 148°29'1819.6
2014-Sep-25 23:08S 38°48' E 148°10'3321.0
2014-Sep-25 21:33S 39°00' E 147°30'2121.4
2014-Sep-25 20:34S 39°08' E 147°05'2221.7
2014-Sep-25 19:33S 39°16' E 146°39'2121.1
2014-Sep-25 18:34S 39°17' E 146°11'2121.2
2014-Sep-25 17:34S 39°06' E 145°48'  
2014-Sep-23 13:22S 38°47' E 145°14'1615.2
2014-Sep-23 12:20S 38°55' E 145°31'1215.3
2014-Sep-23 11:33S 39°01' E 145°44'1515.1
2014-Sep-23 10:33S 39°09' E 146°01'1514.9
2014-Sep-23 09:33S 39°12' E 146°19'1616.2
2014-Sep-23 08:33S 39°07' E 146°39'4815.9
2014-Sep-23 05:33S 38°58' E 147°40'1615.5
2014-Sep-23 04:33S 38°55' E 147°59'1515.2
2014-Sep-23 03:33S 38°53' E 148°19'1615.6
2014-Sep-23 02:33S 38°51' E 148°39'1616.4
2014-Sep-23 01:33S 38°48' E 148°59'1817.7
2014-Sep-23 00:33S 38°45' E 149°22'18117.3
2014-Sep-22 14:08S 37°36' E 152°54'1117.6
2014-Sep-22 13:30S 37°31' E 153°07'1717.5
2014-Sep-22 12:32S 37°25' E 153°26'  

Dump ship's entire track history